createdAt,value
2022-10-21T00:01:32.259Z,69.50
2022-10-21T00:04:03.337Z,69.07
2022-10-21T00:06:31.578Z,77.30
2022-10-21T00:08:58.658Z,79.10
2022-10-21T00:11:25.342Z,76.15
2022-10-21T00:13:51.996Z,82.55
2022-10-21T00:16:19.453Z,71.45
2022-10-21T00:18:50.571Z,55.97
2022-10-21T00:21:21.024Z,55.65
2022-10-21T00:23:49.456Z,53.72
2022-10-21T00:26:18.667Z,63.45
2022-10-21T00:28:45.679Z,57.40
2022-10-21T00:31:16.973Z,51.50
2022-10-21T00:33:43.627Z,51.78
2022-10-21T00:36:11.649Z,58.10
2022-10-21T00:38:38.270Z,59.70
2022-10-21T00:41:06.510Z,58.22
2022-10-21T00:43:48.195Z,59.13
2022-10-21T00:46:14.848Z,67.75
2022-10-21T00:48:48.091Z,56.60
2022-10-21T00:51:19.610Z,68.28
2022-10-21T00:53:49.129Z,62.03
2022-10-21T00:58:49.016Z,68.43
2022-10-21T01:01:19.191Z,65.88
2022-10-21T01:03:49.119Z,81.15
2022-10-21T01:06:16.888Z,73.32
2022-10-21T01:08:43.757Z,77.30
2022-10-21T01:11:14.482Z,75.47
2022-10-21T01:13:53.634Z,76.97
2022-10-21T01:16:25.052Z,90.43
2022-10-21T01:19:01.204Z,91.45
2022-10-21T01:21:38.584Z,79.75
2022-10-21T01:24:44.410Z,83.45
2022-10-21T01:27:25.286Z,79.03
2022-10-21T01:30:14.218Z,64.18
2022-10-21T01:33:16.834Z,83.70
2022-10-21T01:35:49.112Z,65.90
2022-10-21T01:38:24.279Z,69.30
2022-10-21T01:40:57.307Z,72.45
2022-10-21T01:43:33.730Z,72.18
2022-10-21T01:46:04.298Z,64.28
2022-10-21T01:48:37.162Z,70.57
2022-10-21T01:51:07.666Z,65.05
2022-10-21T01:53:44.716Z,66.85
2022-10-21T01:56:13.409Z,60.13
2022-10-21T01:58:42.960Z,59.73
2022-10-21T02:03:46.056Z,64.93
2022-10-21T02:06:12.796Z,52.67
2022-10-21T02:08:39.823Z,59.75
2022-10-21T02:11:08.993Z,59.17
2022-10-21T02:13:41.612Z,49.83
2022-10-21T02:16:11.069Z,59.63
2022-10-21T02:18:39.346Z,52.13
2022-10-21T02:21:10.256Z,56.55
2022-10-21T02:23:42.209Z,47.90
2022-10-21T02:26:09.097Z,51.30
2022-10-21T02:28:36.168Z,56.35
2022-10-21T02:31:18.662Z,60.60
2022-10-21T02:33:55.678Z,60.97
2022-10-21T02:36:35.571Z,48.90
2022-10-21T02:39:09.225Z,53.70
2022-10-21T02:41:38.357Z,49.70
2022-10-21T02:44:05.691Z,52.80
2022-10-21T02:46:38.261Z,50.15
2022-10-21T02:49:06.337Z,55.25
2022-10-21T02:51:34.564Z,52.60
2022-10-21T02:54:01.273Z,54.58
2022-10-21T02:56:31.106Z,41.72
2022-10-21T02:58:57.890Z,45.45
2022-10-21T03:01:24.749Z,39.90
2022-10-21T03:03:51.625Z,48.08
2022-10-21T03:06:19.684Z,46.70
2022-10-21T03:08:46.472Z,49.13
2022-10-21T03:11:13.199Z,50.67
2022-10-21T03:13:40.039Z,51.72
2022-10-21T03:16:07.688Z,52.83
2022-10-21T03:18:34.384Z,59.30
2022-10-21T03:21:01.072Z,59.08
2022-10-21T03:23:29.175Z,61.55
2022-10-21T03:25:55.805Z,49.13
2022-10-21T03:28:22.531Z,60.88
2022-10-21T03:30:49.179Z,51.58
2022-10-21T03:33:15.811Z,45.53
2022-10-21T03:35:42.434Z,50.10
2022-10-21T03:38:09.132Z,45.03
2022-10-21T03:40:37.222Z,51.50
2022-10-21T03:43:03.891Z,50.42
2022-10-21T03:45:30.765Z,46.33
2022-10-21T03:47:57.361Z,48.33
2022-10-21T03:50:26.525Z,59.33
2022-10-21T03:52:54.351Z,53.00
2022-10-21T03:55:21.290Z,54.55
2022-10-21T03:57:49.651Z,52.58
2022-10-21T04:00:17.094Z,50.65
2022-10-21T04:02:43.870Z,50.13
2022-10-21T04:05:11.079Z,51.28
2022-10-21T04:07:39.540Z,44.28
2022-10-21T04:10:08.085Z,55.15
2022-10-21T04:12:37.506Z,54.75
2022-10-21T04:17:32.831Z,50.22
2022-10-21T04:19:59.463Z,55.72
2022-10-21T04:22:26.177Z,54.85
2022-10-21T04:24:52.849Z,53.33
2022-10-21T04:27:19.540Z,52.05
2022-10-21T04:29:46.185Z,43.70
2022-10-21T04:32:14.347Z,55.55
2022-10-21T04:34:41.000Z,50.58
2022-10-21T04:37:10.342Z,55.13
2022-10-21T04:39:37.247Z,42.88
2022-10-21T04:42:03.993Z,54.08
2022-10-21T04:44:30.740Z,51.72
2022-10-21T04:46:57.358Z,53.90
2022-10-21T04:49:25.333Z,48.97
2022-10-21T04:51:52.117Z,54.78
2022-10-21T04:54:18.800Z,55.40
2022-10-21T04:56:45.485Z,55.95
2022-10-21T04:59:12.103Z,59.63
2022-10-21T05:01:38.753Z,55.75
2022-10-21T05:04:05.606Z,65.25
2022-10-21T05:06:33.677Z,59.92
2022-10-21T05:09:00.365Z,55.22
2022-10-21T05:11:27.388Z,66.63
2022-10-21T05:13:54.022Z,54.55
2022-10-21T05:16:20.653Z,55.65
2022-10-21T05:18:47.339Z,51.28
2022-10-21T05:21:14.052Z,48.28
2022-10-21T05:23:42.120Z,49.88
2022-10-21T05:26:08.788Z,52.65
2022-10-21T05:28:36.033Z,63.42
2022-10-21T05:31:02.964Z,46.45
2022-10-21T05:33:29.628Z,63.15
2022-10-21T05:35:57.532Z,57.78
2022-10-21T05:38:24.263Z,49.30
2022-10-21T05:40:52.337Z,56.97
2022-10-21T05:43:19.006Z,48.78
2022-10-21T05:45:45.711Z,45.05
2022-10-21T05:48:17.684Z,49.70
2022-10-21T05:50:44.945Z,56.25
2022-10-21T05:53:11.562Z,56.40
2022-10-21T05:55:38.184Z,50.67
2022-10-21T05:58:06.266Z,49.65
2022-10-21T06:00:33.263Z,45.80
2022-10-21T06:02:59.879Z,53.38
2022-10-21T06:05:26.739Z,51.00
2022-10-21T06:07:53.448Z,65.13
2022-10-21T06:10:20.092Z,56.65
2022-10-21T06:12:46.718Z,55.78
2022-10-21T06:15:14.762Z,58.35
2022-10-21T06:17:41.505Z,58.97
2022-10-21T06:20:09.028Z,51.03
2022-10-21T06:22:35.669Z,59.83
2022-10-21T06:25:02.283Z,47.13
2022-10-21T06:27:28.986Z,60.50
2022-10-21T06:29:55.617Z,54.55
2022-10-21T06:32:23.623Z,58.40
2022-10-21T06:34:50.308Z,56.10
2022-10-21T06:37:17.040Z,51.88
2022-10-21T06:39:43.650Z,57.30
2022-10-21T06:42:10.290Z,71.15
2022-10-21T06:44:36.944Z,69.65
2022-10-21T06:47:03.545Z,81.85
2022-10-21T06:49:31.737Z,71.47
2022-10-21T06:51:58.380Z,61.47
2022-10-21T06:54:25.125Z,56.20
2022-10-21T06:56:52.063Z,59.45
2022-10-21T06:59:18.673Z,52.90
2022-10-21T07:01:59.578Z,57.47
2022-10-21T07:04:27.310Z,58.10
2022-10-21T07:06:55.569Z,65.10
2022-10-21T07:09:22.344Z,56.50
2022-10-21T07:11:49.045Z,56.80
2022-10-21T07:14:15.656Z,60.67
2022-10-21T07:16:42.691Z,59.10
2022-10-21T07:19:19.865Z,57.08
2022-10-21T07:21:56.344Z,70.05
2022-10-21T07:24:24.546Z,76.53
2022-10-21T07:26:51.654Z,75.03
2022-10-21T07:29:19.038Z,66.45
2022-10-21T07:31:46.003Z,72.85
2022-10-21T07:34:15.689Z,66.53
2022-10-21T07:36:50.371Z,66.72
2022-10-21T07:39:19.282Z,69.00
2022-10-21T07:41:50.969Z,62.70
2022-10-21T07:44:19.334Z,57.85
2022-10-21T07:46:50.106Z,80.55
2022-10-21T07:49:22.474Z,65.65
2022-10-21T07:51:50.759Z,68.60
2022-10-21T07:54:23.811Z,55.92
2022-10-21T07:56:52.431Z,69.55
2022-10-21T07:59:29.176Z,85.43
2022-10-21T08:02:00.939Z,84.60
2022-10-21T08:04:35.265Z,75.95
2022-10-21T08:07:04.447Z,88.50
2022-10-21T08:09:31.213Z,79.88
2022-10-21T08:11:59.722Z,91.20
2022-10-21T08:14:26.516Z,93.50
2022-10-21T08:16:56.815Z,89.30
2022-10-21T08:19:29.267Z,88.57
2022-10-21T08:21:57.168Z,69.13
2022-10-21T08:24:24.364Z,80.32
2022-10-21T08:26:54.650Z,73.40
2022-10-21T08:29:27.668Z,81.53
2022-10-21T08:31:59.037Z,81.47
2022-10-21T08:34:26.081Z,68.82
2022-10-21T08:37:05.355Z,73.15
2022-10-21T08:39:32.117Z,68.45
2022-10-21T08:42:07.787Z,70.03
2022-10-21T08:44:43.033Z,64.32
2022-10-21T08:47:21.462Z,62.10
2022-10-21T08:50:20.481Z,62.63
2022-10-21T08:52:57.913Z,59.55
2022-10-21T08:55:32.947Z,67.82
2022-10-21T08:58:02.066Z,52.70
2022-10-21T09:00:34.168Z,56.42
2022-10-21T09:03:18.391Z,61.35
2022-10-21T09:06:09.306Z,60.15
2022-10-21T09:08:52.534Z,53.72
2022-10-21T09:11:34.695Z,56.10
2022-10-21T09:14:32.983Z,52.08
2022-10-21T09:17:12.208Z,48.90
2022-10-21T09:19:58.646Z,53.53
2022-10-21T09:23:02.240Z,58.35
2022-10-21T09:25:42.745Z,37.75
2022-10-21T09:28:12.896Z,38.47
2022-10-21T09:30:40.679Z,39.80
2022-10-21T09:33:16.035Z,42.42
2022-10-21T09:35:46.876Z,37.55
2022-10-21T09:38:17.958Z,40.38
2022-10-21T09:40:49.325Z,37.25
2022-10-21T09:43:25.053Z,37.67
2022-10-21T09:45:52.048Z,35.15
2022-10-21T09:48:29.244Z,36.63
2022-10-21T09:51:00.975Z,31.10
2022-10-21T09:53:33.058Z,33.92
2022-10-21T09:56:03.404Z,25.15
2022-10-21T09:58:45.290Z,30.80
2022-10-21T10:01:16.618Z,30.42
2022-10-21T10:03:46.915Z,23.63
2022-10-21T10:06:32.068Z,22.20
2022-10-21T10:09:07.762Z,32.53
2022-10-21T10:11:34.456Z,25.75
2022-10-21T10:14:23.140Z,31.10
2022-10-21T10:16:50.025Z,26.23
2022-10-21T10:19:19.781Z,26.15
2022-10-21T10:22:10.071Z,24.52
2022-10-21T10:24:37.699Z,30.15
2022-10-21T10:27:05.372Z,22.00
2022-10-21T10:29:33.011Z,22.23
2022-10-21T10:32:02.117Z,26.75
2022-10-21T10:34:34.344Z,18.92
2022-10-21T10:37:04.981Z,20.52
2022-10-21T10:39:34.635Z,23.38
2022-10-21T10:42:02.696Z,24.95
2022-10-21T10:44:33.870Z,23.17
2022-10-21T10:47:02.731Z,17.27
2022-10-21T10:49:38.252Z,17.23
2022-10-21T10:52:14.259Z,19.55
2022-10-21T10:54:42.287Z,16.52
2022-10-21T10:57:15.672Z,19.50
2022-10-21T10:59:44.356Z,20.67
2022-10-21T11:02:34.649Z,22.85
2022-10-21T11:05:15.308Z,19.73
2022-10-21T11:07:46.213Z,18.30
2022-10-21T11:10:33.147Z,16.60
2022-10-21T11:13:04.334Z,21.20
2022-10-21T11:15:43.622Z,25.40
2022-10-21T11:21:05.542Z,19.13
2022-10-21T11:23:54.263Z,17.40
2022-10-21T11:26:33.616Z,23.75
2022-10-21T11:29:16.935Z,20.38
2022-10-21T11:32:10.759Z,17.35
2022-10-21T11:34:53.273Z,19.85
2022-10-21T11:37:33.080Z,15.23
2022-10-21T11:40:07.706Z,19.10
2022-10-21T11:42:41.530Z,12.77
2022-10-21T11:45:33.269Z,12.07
2022-10-21T11:48:14.123Z,16.15
2022-10-21T11:50:49.729Z,15.60
2022-10-21T11:53:31.866Z,13.07
2022-10-21T11:56:10.191Z,16.83
2022-10-21T11:58:48.302Z,14.50
2022-10-21T12:01:25.894Z,17.55
2022-10-21T12:04:22.290Z,13.00
2022-10-21T12:07:07.676Z,8.95
2022-10-21T12:09:43.836Z,12.20
2022-10-21T12:12:13.957Z,11.00
2022-10-21T12:14:43.711Z,10.93
2022-10-21T12:17:15.817Z,6.70
2022-10-21T12:19:48.710Z,11.50
2022-10-21T12:22:15.669Z,7.82
2022-10-21T12:24:52.673Z,8.80
2022-10-21T12:27:26.930Z,10.57
2022-10-21T12:30:05.280Z,8.10
2022-10-21T12:32:40.552Z,12.45
2022-10-21T12:35:12.805Z,8.00
2022-10-21T12:37:58.159Z,10.55
2022-10-21T12:40:37.453Z,6.05
2022-10-21T12:45:35.119Z,5.60
2022-10-21T12:48:07.905Z,10.18
2022-10-21T12:50:35.059Z,6.88
2022-10-21T12:53:14.672Z,6.90
2022-10-21T12:55:50.271Z,13.15
2022-10-21T12:58:30.587Z,6.35
2022-10-21T13:00:58.865Z,9.48
2022-10-21T13:03:49.507Z,6.75
2022-10-21T13:06:16.424Z,8.48
2022-10-21T13:08:53.267Z,6.93
2022-10-21T13:11:23.976Z,7.35
2022-10-21T13:14:24.166Z,9.98
2022-10-21T13:16:50.884Z,13.13
2022-10-21T13:19:33.867Z,7.28
2022-10-21T13:22:13.386Z,9.02
2022-10-21T13:24:41.953Z,7.10
2022-10-21T13:27:26.692Z,8.57
2022-10-21T13:30:00.467Z,10.68
2022-10-21T13:32:32.512Z,16.88
2022-10-21T13:35:22.377Z,16.55
2022-10-21T13:37:55.989Z,11.32
2022-10-21T13:40:28.995Z,17.48
2022-10-21T13:43:01.264Z,17.58
2022-10-21T13:45:30.776Z,21.02
2022-10-21T13:48:03.000Z,15.20
2022-10-21T13:50:32.811Z,13.20
2022-10-21T13:53:05.312Z,13.82
2022-10-21T13:55:31.937Z,10.95
2022-10-21T13:58:00.050Z,11.27
2022-10-21T14:00:29.593Z,15.35
2022-10-21T14:03:01.491Z,16.08
2022-10-21T14:05:34.863Z,11.95
2022-10-21T14:08:02.521Z,20.15
2022-10-21T14:10:30.098Z,15.25
2022-10-21T14:15:37.690Z,20.50
2022-10-21T14:18:05.054Z,22.88
2022-10-21T14:20:34.619Z,10.82
2022-10-21T14:23:04.085Z,18.67
2022-10-21T14:25:31.523Z,13.45
2022-10-21T14:28:00.388Z,12.70
2022-10-21T14:30:28.674Z,9.90
2022-10-21T14:33:04.520Z,9.93
2022-10-21T14:35:31.907Z,11.50
2022-10-21T14:38:00.643Z,14.57
2022-10-21T14:40:29.681Z,23.27
2022-10-21T14:42:56.526Z,15.25
2022-10-21T14:45:26.632Z,16.80
2022-10-21T14:47:58.842Z,16.98
2022-10-21T14:50:25.552Z,20.58
2022-10-21T14:52:53.352Z,20.88
2022-10-21T14:55:25.266Z,13.02
2022-10-21T14:57:53.644Z,16.50
2022-10-21T15:00:28.919Z,16.92
2022-10-21T15:02:59.713Z,14.02
2022-10-21T15:05:34.105Z,17.90
2022-10-21T15:08:27.655Z,16.73
2022-10-21T15:11:15.501Z,13.15
2022-10-21T15:13:55.659Z,13.15
2022-10-21T15:16:25.820Z,19.83
2022-10-21T15:18:54.442Z,17.55
2022-10-21T15:21:28.734Z,22.87
2022-10-21T15:23:57.648Z,15.55
2022-10-21T15:26:26.764Z,22.02
2022-10-21T15:28:54.619Z,18.80
2022-10-21T15:31:24.039Z,29.00
2022-10-21T15:36:19.777Z,17.52
2022-10-21T15:38:47.667Z,22.27
2022-10-21T15:41:17.122Z,23.35
2022-10-21T15:46:11.159Z,22.90
2022-10-21T15:48:37.864Z,22.25
2022-10-21T15:51:04.604Z,28.08
2022-10-21T15:53:32.634Z,24.92
2022-10-21T15:56:00.809Z,24.45
2022-10-21T15:58:27.481Z,25.77
2022-10-21T16:00:54.223Z,31.90
2022-10-21T16:03:20.811Z,21.17
2022-10-21T16:05:47.626Z,26.65
2022-10-21T16:08:14.260Z,24.05
2022-10-21T16:10:42.641Z,26.40
2022-10-21T16:13:09.341Z,23.17
2022-10-21T16:15:35.983Z,23.10
2022-10-21T16:18:02.611Z,20.73
2022-10-21T16:20:31.269Z,22.02
2022-10-21T16:23:01.975Z,19.42
2022-10-21T16:25:29.847Z,14.27
2022-10-21T16:27:57.981Z,11.05
2022-10-21T16:30:27.086Z,17.23
2022-10-21T16:32:54.103Z,12.98
2022-10-21T16:35:21.246Z,13.73
2022-10-21T16:37:48.778Z,15.20
2022-10-21T16:40:18.947Z,16.02
2022-10-21T16:42:45.637Z,10.60
2022-10-21T16:45:14.655Z,12.20
2022-10-21T16:47:42.679Z,14.20
2022-10-21T16:50:18.549Z,14.95
2022-10-21T16:52:45.201Z,9.05
2022-10-21T16:55:12.362Z,10.38
2022-10-21T16:57:39.340Z,12.27
2022-10-21T17:00:07.099Z,10.82
2022-10-21T17:02:40.146Z,7.30
2022-10-21T17:05:08.089Z,7.13
2022-10-21T17:07:34.783Z,7.30
2022-10-21T17:10:01.655Z,6.13
2022-10-21T17:12:28.707Z,5.70
2022-10-21T17:14:55.332Z,3.78
2022-10-21T17:17:21.948Z,5.88
2022-10-21T17:19:50.047Z,4.47
2022-10-21T17:22:16.936Z,5.10
2022-10-21T17:24:44.058Z,8.52
2022-10-21T17:27:11.979Z,15.45
2022-10-21T17:29:40.149Z,11.10
2022-10-21T17:32:06.971Z,9.57
2022-10-21T17:34:35.670Z,14.20
2022-10-21T17:37:03.740Z,11.57
2022-10-21T17:39:30.380Z,8.35
2022-10-21T17:41:57.097Z,9.07
2022-10-21T17:44:23.843Z,17.02
2022-10-21T17:46:50.863Z,15.55
2022-10-21T17:49:17.714Z,9.75
2022-10-21T17:51:44.338Z,10.90
2022-10-21T17:54:12.403Z,9.18
2022-10-21T17:56:39.096Z,10.10
2022-10-21T17:59:05.762Z,7.82
2022-10-21T18:01:32.530Z,14.57
2022-10-21T18:03:59.281Z,8.70
2022-10-21T18:06:26.570Z,7.93
2022-10-21T18:08:53.311Z,4.15
2022-10-21T18:11:21.493Z,8.07
2022-10-21T18:13:53.430Z,4.63
2022-10-21T18:16:23.281Z,5.68
2022-10-21T18:18:50.593Z,5.20
2022-10-21T18:21:20.510Z,10.07
2022-10-21T18:23:49.033Z,10.00
2022-10-21T18:26:17.759Z,14.00
2022-10-21T18:28:48.858Z,5.97
2022-10-21T18:31:15.817Z,7.13
2022-10-21T18:33:42.512Z,5.10
2022-10-21T18:36:10.630Z,5.82
2022-10-21T18:38:37.754Z,5.85
2022-10-21T18:41:18.874Z,5.05
2022-10-21T18:43:50.737Z,6.13
2022-10-21T18:46:17.929Z,5.28
2022-10-21T18:48:44.655Z,5.43
2022-10-21T18:51:12.661Z,11.25
2022-10-21T18:53:39.741Z,6.85
2022-10-21T18:56:08.127Z,5.85
2022-10-21T18:58:35.166Z,7.65
2022-10-21T19:01:03.667Z,9.48
2022-10-21T19:03:30.631Z,8.53
2022-10-21T19:05:57.283Z,5.13
2022-10-21T19:08:24.024Z,4.22
2022-10-21T19:10:50.690Z,4.22
2022-10-21T19:13:17.362Z,3.70
2022-10-21T19:15:44.057Z,6.63
2022-10-21T19:18:12.767Z,7.65
2022-10-21T19:20:39.475Z,10.00
2022-10-21T19:23:06.141Z,4.32
2022-10-21T19:25:32.811Z,7.78
2022-10-21T19:27:59.485Z,5.30
2022-10-21T19:30:26.209Z,6.03
2022-10-21T19:32:52.855Z,9.90
2022-10-21T19:35:20.905Z,7.28
2022-10-21T19:37:47.531Z,8.55
2022-10-21T19:40:14.411Z,10.52
2022-10-21T19:42:41.373Z,9.60
2022-10-21T19:45:09.698Z,11.52
2022-10-21T19:47:36.431Z,8.45
2022-10-21T19:50:03.220Z,9.02
2022-10-21T19:52:31.263Z,10.63
2022-10-21T19:54:57.936Z,9.80
2022-10-21T19:57:25.913Z,13.98
2022-10-21T19:59:52.587Z,12.38
2022-10-21T20:02:19.197Z,9.75
2022-10-21T20:04:46.166Z,11.30
2022-10-21T20:07:13.518Z,10.43
2022-10-21T20:09:41.802Z,14.98
2022-10-21T20:12:09.041Z,20.67
2022-10-21T20:14:35.762Z,15.38
2022-10-21T20:17:02.520Z,9.75
2022-10-21T20:19:29.177Z,10.90
2022-10-21T20:21:55.977Z,13.35
2022-10-21T20:24:24.224Z,11.88
2022-10-21T20:26:52.769Z,15.27
2022-10-21T20:29:19.653Z,5.83
2022-10-21T20:31:46.371Z,10.02
2022-10-21T20:34:13.242Z,6.55
2022-10-21T20:36:40.340Z,7.70
2022-10-21T20:39:07.073Z,6.00
2022-10-21T20:41:35.269Z,5.38
2022-10-21T20:44:05.398Z,11.90
2022-10-21T20:46:32.765Z,6.15
2022-10-21T20:48:59.586Z,7.13
2022-10-21T20:51:27.945Z,10.82
2022-10-21T20:53:56.158Z,8.55
2022-10-21T20:56:26.013Z,9.90
2022-10-21T20:58:52.685Z,9.45
2022-10-21T21:01:22.991Z,10.30
2022-10-21T21:03:50.887Z,12.30
2022-10-21T21:06:18.557Z,12.88
2022-10-21T21:08:53.376Z,8.82
2022-10-21T21:11:32.042Z,10.57
2022-10-21T21:13:58.918Z,8.73
2022-10-21T21:16:27.326Z,12.32
2022-10-21T21:18:56.147Z,17.45
2022-10-21T21:21:24.467Z,9.70
2022-10-21T21:23:51.663Z,9.57
2022-10-21T21:26:20.700Z,8.55
2022-10-21T21:28:49.188Z,8.55
2022-10-21T21:31:16.122Z,9.50
2022-10-21T21:33:44.433Z,7.32
2022-10-21T21:36:11.711Z,6.80
2022-10-21T21:38:38.734Z,6.90
2022-10-21T21:41:08.186Z,8.50
2022-10-21T21:43:37.665Z,5.68
2022-10-21T21:46:04.598Z,6.30
2022-10-21T21:48:32.049Z,8.30
2022-10-21T21:51:05.285Z,9.38
2022-10-21T21:53:31.961Z,9.93
2022-10-21T21:56:03.143Z,11.50
2022-10-21T21:58:30.770Z,7.10
2022-10-21T22:00:57.447Z,14.73
2022-10-21T22:03:24.110Z,10.73
2022-10-21T22:05:50.704Z,6.53
2022-10-21T22:08:18.710Z,4.55
2022-10-21T22:10:45.338Z,5.95
2022-10-21T22:13:11.987Z,9.00
2022-10-21T22:15:53.878Z,4.70
2022-10-21T22:18:20.573Z,5.28
2022-10-21T22:20:47.200Z,12.38
2022-10-21T22:23:13.767Z,8.70
2022-10-21T22:25:41.939Z,4.72
2022-10-21T22:28:08.578Z,7.72
2022-10-21T22:30:35.151Z,7.70
2022-10-21T22:33:01.946Z,6.85
2022-10-21T22:35:28.628Z,6.75
2022-10-21T22:37:55.263Z,5.95
2022-10-21T22:40:21.956Z,5.03
2022-10-21T22:42:49.988Z,7.13
2022-10-21T22:45:16.779Z,6.65
2022-10-21T22:47:43.588Z,10.30
2022-10-21T22:50:10.254Z,6.20
2022-10-21T22:52:36.997Z,7.70
2022-10-21T22:55:04.618Z,4.35
2022-10-21T22:57:31.200Z,6.70
2022-10-21T22:59:59.228Z,10.40
2022-10-21T23:02:25.900Z,11.52
2022-10-21T23:04:52.514Z,12.95
2022-10-21T23:07:19.107Z,5.10
2022-10-21T23:09:45.707Z,7.32
2022-10-21T23:12:12.325Z,7.60
2022-10-21T23:14:38.991Z,4.97
2022-10-21T23:17:07.080Z,8.63
2022-10-21T23:19:33.723Z,7.38
2022-10-21T23:22:00.349Z,6.82
2022-10-21T23:24:27.194Z,6.40
2022-10-21T23:26:57.607Z,4.90
2022-10-21T23:29:27.194Z,5.63
2022-10-21T23:31:53.796Z,3.88
2022-10-21T23:34:21.791Z,5.80
2022-10-21T23:36:48.469Z,8.50
2022-10-21T23:39:15.196Z,6.05
2022-10-21T23:41:41.772Z,4.47
2022-10-21T23:44:08.487Z,4.03
2022-10-21T23:46:35.096Z,4.00
2022-10-21T23:49:01.756Z,9.60
2022-10-21T23:51:30.000Z,6.13
2022-10-21T23:53:56.640Z,8.25
2022-10-21T23:56:23.236Z,5.60
2022-10-21T23:58:50.046Z,7.20
